sensor_id;sensor_type;location;lat;lon;timestamp;P1;durP1;ratioP1;P2;durP2;ratioP2
16037;SDS011;8123;50.906;6.172;2024-02-14T00:00:53;2.40;;;2.17;;
16037;SDS011;8123;50.906;6.172;2024-02-14T00:03:18;4.23;;;1.77;;
16037;SDS011;8123;50.906;6.172;2024-02-14T00:05:45;4.80;;;1.90;;
16037;SDS011;8123;50.906;6.172;2024-02-14T00:08:11;3.00;;;1.70;;
16037;SDS011;8123;50.906;6.172;2024-02-14T00:10:38;3.10;;;1.73;;
16037;SDS011;8123;50.906;6.172;2024-02-14T00:13:04;1.50;;;1.40;;
16037;SDS011;8123;50.906;6.172;2024-02-14T00:15:30;2.23;;;1.60;;
16037;SDS011;8123;50.906;6.172;2024-02-14T00:17:56;3.70;;;1.40;;
16037;SDS011;8123;50.906;6.172;2024-02-14T00:20:21;2.30;;;1.13;;
16037;SDS011;8123;50.906;6.172;2024-02-14T00:22:47;3.00;;;1.77;;
16037;SDS011;8123;50.906;6.172;2024-02-14T00:25:13;1.20;;;1.20;;
16037;SDS011;8123;50.906;6.172;2024-02-14T00:27:38;1.50;;;1.40;;
16037;SDS011;8123;50.906;6.172;2024-02-14T00:30:05;2.10;;;1.50;;
16037;SDS011;8123;50.906;6.172;2024-02-14T00:32:31;1.30;;;1.30;;
16037;SDS011;8123;50.906;6.172;2024-02-14T00:34:58;2.80;;;1.43;;
16037;SDS011;8123;50.906;6.172;2024-02-14T00:37:24;4.43;;;1.50;;
16037;SDS011;8123;50.906;6.172;2024-02-14T00:39:50;1.97;;;1.47;;
16037;SDS011;8123;50.906;6.172;2024-02-14T00:42:16;6.50;;;1.70;;
16037;SDS011;8123;50.906;6.172;2024-02-14T00:44:42;2.17;;;1.87;;
16037;SDS011;8123;50.906;6.172;2024-02-14T00:47:08;1.83;;;1.73;;
16037;SDS011;8123;50.906;6.172;2024-02-14T00:49:36;2.00;;;1.60;;
16037;SDS011;8123;50.906;6.172;2024-02-14T00:52:04;9.27;;;1.90;;
16037;SDS011;8123;50.906;6.172;2024-02-14T00:54:29;1.60;;;1.50;;
16037;SDS011;8123;50.906;6.172;2024-02-14T00:56:55;3.93;;;1.90;;
16037;SDS011;8123;50.906;6.172;2024-02-14T00:59:20;1.27;;;1.27;;
16037;SDS011;8123;50.906;6.172;2024-02-14T01:01:46;2.70;;;1.70;;
16037;SDS011;8123;50.906;6.172;2024-02-14T01:04:12;1.70;;;1.60;;
16037;SDS011;8123;50.906;6.172;2024-02-14T01:06:37;3.63;;;1.33;;
16037;SDS011;8123;50.906;6.172;2024-02-14T01:09:03;1.20;;;1.20;;
16037;SDS011;8123;50.906;6.172;2024-02-14T01:11:29;1.40;;;1.30;;
16037;SDS011;8123;50.906;6.172;2024-02-14T01:13:58;6.10;;;1.60;;
16037;SDS011;8123;50.906;6.172;2024-02-14T01:16:24;4.40;;;1.70;;
16037;SDS011;8123;50.906;6.172;2024-02-14T01:18:51;2.67;;;1.33;;
16037;SDS011;8123;50.906;6.172;2024-02-14T01:21:16;1.20;;;1.20;;
16037;SDS011;8123;50.906;6.172;2024-02-14T01:23:42;4.77;;;1.83;;
16037;SDS011;8123;50.906;6.172;2024-02-14T01:26:07;2.80;;;1.23;;
16037;SDS011;8123;50.906;6.172;2024-02-14T01:28:33;2.00;;;1.90;;
16037;SDS011;8123;50.906;6.172;2024-02-14T01:30:59;2.83;;;1.70;;
16037;SDS011;8123;50.906;6.172;2024-02-14T01:33:24;3.27;;;1.80;;
16037;SDS011;8123;50.906;6.172;2024-02-14T01:35:50;1.83;;;1.30;;
16037;SDS011;8123;50.906;6.172;2024-02-14T01:38:15;1.67;;;1.57;;
16037;SDS011;8123;50.906;6.172;2024-02-14T01:40:44;2.17;;;2.07;;
16037;SDS011;8123;50.906;6.172;2024-02-14T01:43:10;9.33;;;1.83;;
16037;SDS011;8123;50.906;6.172;2024-02-14T01:45:37;1.77;;;1.77;;
16037;SDS011;8123;50.906;6.172;2024-02-14T01:48:04;5.20;;;1.80;;
16037;SDS011;8123;50.906;6.172;2024-02-14T01:50:31;1.63;;;1.53;;
16037;SDS011;8123;50.906;6.172;2024-02-14T01:52:58;1.97;;;1.87;;
16037;SDS011;8123;50.906;6.172;2024-02-14T01:55:24;1.60;;;1.50;;
16037;SDS011;8123;50.906;6.172;2024-02-14T01:57:52;1.80;;;1.70;;
16037;SDS011;8123;50.906;6.172;2024-02-14T02:00:18;1.67;;;1.57;;
16037;SDS011;8123;50.906;6.172;2024-02-14T02:02:44;1.57;;;1.47;;
16037;SDS011;8123;50.906;6.172;2024-02-14T02:05:11;3.03;;;1.30;;
16037;SDS011;8123;50.906;6.172;2024-02-14T02:07:38;2.20;;;2.10;;
16037;SDS011;8123;50.906;6.172;2024-02-14T02:10:08;9.10;;;2.20;;
16037;SDS011;8123;50.906;6.172;2024-02-14T02:12:37;1.80;;;1.70;;
16037;SDS011;8123;50.906;6.172;2024-02-14T02:15:04;1.83;;;1.73;;
16037;SDS011;8123;50.906;6.172;2024-02-14T02:17:31;2.27;;;1.60;;
16037;SDS011;8123;50.906;6.172;2024-02-14T02:19:59;2.03;;;1.93;;
16037;SDS011;8123;50.906;6.172;2024-02-14T02:22:26;3.47;;;1.97;;
16037;SDS011;8123;50.906;6.172;2024-02-14T02:24:53;1.67;;;1.67;;
16037;SDS011;8123;50.906;6.172;2024-02-14T02:27:19;1.80;;;1.70;;
16037;SDS011;8123;50.906;6.172;2024-02-14T02:29:44;2.23;;;2.13;;
16037;SDS011;8123;50.906;6.172;2024-02-14T02:32:11;1.90;;;1.73;;
16037;SDS011;8123;50.906;6.172;2024-02-14T02:34:36;2.60;;;2.50;;
16037;SDS011;8123;50.906;6.172;2024-02-14T02:37:04;5.00;;;2.10;;
16037;SDS011;8123;50.906;6.172;2024-02-14T02:39:32;3.53;;;2.27;;
16037;SDS011;8123;50.906;6.172;2024-02-14T02:42:00;3.77;;;2.13;;
16037;SDS011;8123;50.906;6.172;2024-02-14T02:44:27;2.50;;;2.30;;
16037;SDS011;8123;50.906;6.172;2024-02-14T02:46:52;2.40;;;2.30;;
16037;SDS011;8123;50.906;6.172;2024-02-14T02:49:18;3.80;;;2.23;;
16037;SDS011;8123;50.906;6.172;2024-02-14T02:51:43;2.40;;;2.20;;
16037;SDS011;8123;50.906;6.172;2024-02-14T02:54:09;2.57;;;2.47;;
16037;SDS011;8123;50.906;6.172;2024-02-14T02:56:36;3.30;;;2.40;;
16037;SDS011;8123;50.906;6.172;2024-02-14T02:59:02;2.30;;;2.20;;
16037;SDS011;8123;50.906;6.172;2024-02-14T03:01:28;2.50;;;2.10;;
16037;SDS011;8123;50.906;6.172;2024-02-14T03:04:03;5.70;;;2.60;;
16037;SDS011;8123;50.906;6.172;2024-02-14T03:06:29;5.50;;;2.63;;
16037;SDS011;8123;50.906;6.172;2024-02-14T03:08:56;3.27;;;2.97;;
16037;SDS011;8123;50.906;6.172;2024-02-14T03:11:22;3.63;;;2.50;;
16037;SDS011;8123;50.906;6.172;2024-02-14T03:13:50;6.20;;;2.97;;
16037;SDS011;8123;50.906;6.172;2024-02-14T03:16:15;2.97;;;2.77;;
16037;SDS011;8123;50.906;6.172;2024-02-14T03:18:42;10.47;;;2.83;;
16037;SDS011;8123;50.906;6.172;2024-02-14T03:21:08;3.70;;;3.03;;
16037;SDS011;8123;50.906;6.172;2024-02-14T03:23:33;3.70;;;3.30;;
16037;SDS011;8123;50.906;6.172;2024-02-14T03:25:59;3.53;;;3.23;;
16037;SDS011;8123;50.906;6.172;2024-02-14T03:28:25;5.23;;;3.07;;
16037;SDS011;8123;50.906;6.172;2024-02-14T03:30:51;3.23;;;3.03;;
16037;SDS011;8123;50.906;6.172;2024-02-14T03:33:17;3.20;;;2.90;;
16037;SDS011;8123;50.906;6.172;2024-02-14T03:35:42;2.90;;;2.67;;
16037;SDS011;8123;50.906;6.172;2024-02-14T03:38:08;4.40;;;3.60;;
16037;SDS011;8123;50.906;6.172;2024-02-14T03:40:34;3.43;;;3.13;;
16037;SDS011;8123;50.906;6.172;2024-02-14T03:43:01;4.33;;;3.47;;
16037;SDS011;8123;50.906;6.172;2024-02-14T03:45:27;8.43;;;3.67;;
16037;SDS011;8123;50.906;6.172;2024-02-14T03:47:54;4.80;;;2.53;;
16037;SDS011;8123;50.906;6.172;2024-02-14T03:50:21;3.50;;;2.70;;
16037;SDS011;8123;50.906;6.172;2024-02-14T03:52:47;5.23;;;2.80;;
16037;SDS011;8123;50.906;6.172;2024-02-14T03:55:13;2.77;;;2.60;;
16037;SDS011;8123;50.906;6.172;2024-02-14T03:57:42;2.60;;;2.40;;
16037;SDS011;8123;50.906;6.172;2024-02-14T04:00:10;3.03;;;2.77;;
16037;SDS011;8123;50.906;6.172;2024-02-14T04:02:36;2.20;;;2.00;;
16037;SDS011;8123;50.906;6.172;2024-02-14T04:05:02;4.40;;;2.80;;
16037;SDS011;8123;50.906;6.172;2024-02-14T04:07:28;6.07;;;2.90;;
16037;SDS011;8123;50.906;6.172;2024-02-14T04:09:54;2.97;;;2.77;;
16037;SDS011;8123;50.906;6.172;2024-02-14T04:12:20;2.60;;;2.40;;
16037;SDS011;8123;50.906;6.172;2024-02-14T04:14:46;2.37;;;2.13;;
16037;SDS011;8123;50.906;6.172;2024-02-14T04:17:12;4.00;;;3.00;;
16037;SDS011;8123;50.906;6.172;2024-02-14T04:19:38;3.57;;;2.30;;
16037;SDS011;8123;50.906;6.172;2024-02-14T04:22:04;8.57;;;2.43;;
16037;SDS011;8123;50.906;6.172;2024-02-14T04:24:32;2.60;;;2.50;;
16037;SDS011;8123;50.906;6.172;2024-02-14T04:26:58;3.47;;;2.70;;
16037;SDS011;8123;50.906;6.172;2024-02-14T04:29:26;5.90;;;3.00;;
16037;SDS011;8123;50.906;6.172;2024-02-14T04:31:53;4.57;;;2.70;;
16037;SDS011;8123;50.906;6.172;2024-02-14T04:34:19;3.37;;;2.50;;
16037;SDS011;8123;50.906;6.172;2024-02-14T04:36:44;6.10;;;3.10;;
16037;SDS011;8123;50.906;6.172;2024-02-14T04:39:10;5.03;;;2.57;;
16037;SDS011;8123;50.906;6.172;2024-02-14T04:41:36;4.13;;;2.87;;
16037;SDS011;8123;50.906;6.172;2024-02-14T04:44:03;5.30;;;3.53;;
16037;SDS011;8123;50.906;6.172;2024-02-14T04:46:31;2.70;;;2.53;;
16037;SDS011;8123;50.906;6.172;2024-02-14T04:48:57;3.40;;;3.10;;
16037;SDS011;8123;50.906;6.172;2024-02-14T04:51:23;3.63;;;3.27;;
16037;SDS011;8123;50.906;6.172;2024-02-14T04:53:48;3.30;;;3.10;;
16037;SDS011;8123;50.906;6.172;2024-02-14T04:56:14;4.80;;;2.87;;
16037;SDS011;8123;50.906;6.172;2024-02-14T04:58:40;5.17;;;3.10;;
16037;SDS011;8123;50.906;6.172;2024-02-14T05:01:05;3.00;;;2.80;;
16037;SDS011;8123;50.906;6.172;2024-02-14T05:03:32;4.00;;;3.43;;
16037;SDS011;8123;50.906;6.172;2024-02-14T05:05:57;3.60;;;3.30;;
16037;SDS011;8123;50.906;6.172;2024-02-14T05:08:23;3.80;;;3.47;;
16037;SDS011;8123;50.906;6.172;2024-02-14T05:10:49;4.90;;;3.37;;
16037;SDS011;8123;50.906;6.172;2024-02-14T05:13:15;4.00;;;2.83;;
16037;SDS011;8123;50.906;6.172;2024-02-14T05:15:41;7.83;;;4.43;;
16037;SDS011;8123;50.906;6.172;2024-02-14T05:18:07;3.67;;;3.33;;
16037;SDS011;8123;50.906;6.172;2024-02-14T05:20:32;4.17;;;3.40;;
16037;SDS011;8123;50.906;6.172;2024-02-14T05:22:58;5.67;;;3.90;;
16037;SDS011;8123;50.906;6.172;2024-02-14T05:25:24;6.33;;;3.17;;
16037;SDS011;8123;50.906;6.172;2024-02-14T05:27:49;5.57;;;3.20;;
16037;SDS011;8123;50.906;6.172;2024-02-14T05:30:15;3.57;;;3.27;;
16037;SDS011;8123;50.906;6.172;2024-02-14T05:32:41;3.73;;;3.17;;
16037;SDS011;8123;50.906;6.172;2024-02-14T05:35:06;5.33;;;3.57;;
16037;SDS011;8123;50.906;6.172;2024-02-14T05:37:33;3.50;;;3.30;;
16037;SDS011;8123;50.906;6.172;2024-02-14T05:39:58;4.33;;;3.93;;
16037;SDS011;8123;50.906;6.172;2024-02-14T05:42:24;4.20;;;3.20;;
16037;SDS011;8123;50.906;6.172;2024-02-14T05:44:49;4.87;;;3.10;;
16037;SDS011;8123;50.906;6.172;2024-02-14T05:47:17;3.63;;;2.93;;
16037;SDS011;8123;50.906;6.172;2024-02-14T05:49:43;3.93;;;3.17;;
16037;SDS011;8123;50.906;6.172;2024-02-14T05:52:09;7.03;;;3.73;;
16037;SDS011;8123;50.906;6.172;2024-02-14T05:54:35;5.23;;;3.57;;
16037;SDS011;8123;50.906;6.172;2024-02-14T05:57:00;4.90;;;3.50;;
16037;SDS011;8123;50.906;6.172;2024-02-14T05:59:29;10.50;;;3.60;;
16037;SDS011;8123;50.906;6.172;2024-02-14T06:01:55;3.83;;;3.30;;
16037;SDS011;8123;50.906;6.172;2024-02-14T06:04:21;3.80;;;3.50;;
16037;SDS011;8123;50.906;6.172;2024-02-14T06:06:46;4.73;;;3.73;;
16037;SDS011;8123;50.906;6.172;2024-02-14T06:09:12;6.17;;;3.53;;
16037;SDS011;8123;50.906;6.172;2024-02-14T06:11:38;10.17;;;4.10;;
16037;SDS011;8123;50.906;6.172;2024-02-14T06:14:05;3.20;;;2.90;;
16037;SDS011;8123;50.906;6.172;2024-02-14T06:16:32;4.03;;;3.43;;
16037;SDS011;8123;50.906;6.172;2024-02-14T06:18:58;4.17;;;3.30;;
16037;SDS011;8123;50.906;6.172;2024-02-14T06:21:23;4.67;;;3.47;;
16037;SDS011;8123;50.906;6.172;2024-02-14T06:23:50;3.80;;;3.50;;
16037;SDS011;8123;50.906;6.172;2024-02-14T06:26:16;5.63;;;4.37;;
16037;SDS011;8123;50.906;6.172;2024-02-14T06:28:42;3.33;;;3.00;;
16037;SDS011;8123;50.906;6.172;2024-02-14T06:31:09;4.10;;;3.13;;
16037;SDS011;8123;50.906;6.172;2024-02-14T06:33:35;2.60;;;2.50;;
16037;SDS011;8123;50.906;6.172;2024-02-14T06:36:00;4.50;;;3.70;;
16037;SDS011;8123;50.906;6.172;2024-02-14T06:38:26;3.03;;;2.93;;
16037;SDS011;8123;50.906;6.172;2024-02-14T06:40:52;7.93;;;4.73;;
16037;SDS011;8123;50.906;6.172;2024-02-14T06:43:17;4.03;;;3.67;;
16037;SDS011;8123;50.906;6.172;2024-02-14T06:45:44;4.60;;;3.43;;
16037;SDS011;8123;50.906;6.172;2024-02-14T06:48:10;3.40;;;3.10;;
16037;SDS011;8123;50.906;6.172;2024-02-14T06:50:36;3.20;;;3.00;;
16037;SDS011;8123;50.906;6.172;2024-02-14T06:53:01;3.37;;;3.13;;
16037;SDS011;8123;50.906;6.172;2024-02-14T06:55:27;8.30;;;3.27;;
16037;SDS011;8123;50.906;6.172;2024-02-14T06:57:55;5.00;;;3.00;;
16037;SDS011;8123;50.906;6.172;2024-02-14T07:00:21;9.83;;;3.90;;
16037;SDS011;8123;50.906;6.172;2024-02-14T07:02:47;3.70;;;3.23;;
16037;SDS011;8123;50.906;6.172;2024-02-14T07:05:13;4.50;;;2.83;;
16037;SDS011;8123;50.906;6.172;2024-02-14T07:07:39;3.60;;;3.30;;
16037;SDS011;8123;50.906;6.172;2024-02-14T07:10:05;6.77;;;3.47;;
16037;SDS011;8123;50.906;6.172;2024-02-14T07:12:32;3.43;;;2.70;;
16037;SDS011;8123;50.906;6.172;2024-02-14T07:14:58;9.97;;;2.93;;
16037;SDS011;8123;50.906;6.172;2024-02-14T07:17:23;3.40;;;3.10;;
16037;SDS011;8123;50.906;6.172;2024-02-14T07:19:49;3.20;;;3.00;;
16037;SDS011;8123;50.906;6.172;2024-02-14T07:22:17;2.93;;;2.70;;
16037;SDS011;8123;50.906;6.172;2024-02-14T07:24:46;4.30;;;2.57;;
16037;SDS011;8123;50.906;6.172;2024-02-14T07:27:12;3.50;;;3.00;;
16037;SDS011;8123;50.906;6.172;2024-02-14T07:29:39;4.40;;;2.77;;
16037;SDS011;8123;50.906;6.172;2024-02-14T07:32:05;4.93;;;3.10;;
16037;SDS011;8123;50.906;6.172;2024-02-14T07:34:31;3.77;;;2.60;;
16037;SDS011;8123;50.906;6.172;2024-02-14T07:36:57;7.63;;;2.97;;
16037;SDS011;8123;50.906;6.172;2024-02-14T07:39:22;6.10;;;2.57;;
16037;SDS011;8123;50.906;6.172;2024-02-14T07:41:48;3.43;;;3.13;;
16037;SDS011;8123;50.906;6.172;2024-02-14T07:44:14;3.67;;;2.93;;
16037;SDS011;8123;50.906;6.172;2024-02-14T07:46:39;5.17;;;3.07;;
16037;SDS011;8123;50.906;6.172;2024-02-14T07:49:05;4.03;;;3.20;;
16037;SDS011;8123;50.906;6.172;2024-02-14T07:51:31;6.23;;;2.63;;
16037;SDS011;8123;50.906;6.172;2024-02-14T07:54:02;2.77;;;2.57;;
16037;SDS011;8123;50.906;6.172;2024-02-14T07:56:28;2.27;;;2.17;;
16037;SDS011;8123;50.906;6.172;2024-02-14T07:58:54;3.43;;;2.73;;
16037;SDS011;8123;50.906;6.172;2024-02-14T08:01:20;6.47;;;2.60;;
16037;SDS011;8123;50.906;6.172;2024-02-14T08:03:45;3.80;;;2.50;;
16037;SDS011;8123;50.906;6.172;2024-02-14T08:06:11;3.10;;;2.50;;
16037;SDS011;8123;50.906;6.172;2024-02-14T08:08:38;6.67;;;2.37;;
16037;SDS011;8123;50.906;6.172;2024-02-14T08:11:03;2.73;;;2.50;;
16037;SDS011;8123;50.906;6.172;2024-02-14T08:13:29;5.10;;;2.93;;
16037;SDS011;8123;50.906;6.172;2024-02-14T08:15:55;5.77;;;2.80;;
16037;SDS011;8123;50.906;6.172;2024-02-14T08:18:21;4.90;;;2.30;;
16037;SDS011;8123;50.906;6.172;2024-02-14T08:20:48;3.00;;;2.50;;
16037;SDS011;8123;50.906;6.172;2024-02-14T08:23:14;4.30;;;2.33;;
16037;SDS011;8123;50.906;6.172;2024-02-14T08:25:39;3.10;;;2.80;;
16037;SDS011;8123;50.906;6.172;2024-02-14T08:28:09;5.70;;;2.60;;
16037;SDS011;8123;50.906;6.172;2024-02-14T08:30:35;2.53;;;2.30;;
16037;SDS011;8123;50.906;6.172;2024-02-14T08:33:01;2.30;;;2.10;;
16037;SDS011;8123;50.906;6.172;2024-02-14T08:35:27;4.40;;;2.23;;
16037;SDS011;8123;50.906;6.172;2024-02-14T08:37:53;6.00;;;2.20;;
16037;SDS011;8123;50.906;6.172;2024-02-14T08:40:19;2.90;;;2.00;;
16037;SDS011;8123;50.906;6.172;2024-02-14T08:42:45;5.53;;;2.20;;
16037;SDS011;8123;50.906;6.172;2024-02-14T08:45:11;5.83;;;2.93;;
16037;SDS011;8123;50.906;6.172;2024-02-14T08:47:37;7.60;;;2.33;;
16037;SDS011;8123;50.906;6.172;2024-02-14T08:50:05;7.50;;;2.07;;
16037;SDS011;8123;50.906;6.172;2024-02-14T08:52:31;4.20;;;1.90;;
16037;SDS011;8123;50.906;6.172;2024-02-14T08:54:57;6.57;;;1.70;;
16037;SDS011;8123;50.906;6.172;2024-02-14T08:57:23;3.17;;;2.40;;
16037;SDS011;8123;50.906;6.172;2024-02-14T08:59:49;3.13;;;2.10;;
16037;SDS011;8123;50.906;6.172;2024-02-14T09:02:14;5.17;;;2.07;;
16037;SDS011;8123;50.906;6.172;2024-02-14T09:04:41;5.73;;;1.80;;
16037;SDS011;8123;50.906;6.172;2024-02-14T09:07:07;5.23;;;2.00;;
16037;SDS011;8123;50.906;6.172;2024-02-14T09:09:33;4.17;;;1.80;;
16037;SDS011;8123;50.906;6.172;2024-02-14T09:11:59;6.20;;;2.40;;
16037;SDS011;8123;50.906;6.172;2024-02-14T09:14:28;2.13;;;1.67;;
16037;SDS011;8123;50.906;6.172;2024-02-14T09:16:55;4.23;;;1.70;;
16037;SDS011;8123;50.906;6.172;2024-02-14T09:19:20;2.40;;;1.60;;
16037;SDS011;8123;50.906;6.172;2024-02-14T09:21:46;2.93;;;2.27;;
16037;SDS011;8123;50.906;6.172;2024-02-14T09:24:12;2.40;;;2.10;;
16037;SDS011;8123;50.906;6.172;2024-02-14T09:26:38;2.23;;;1.80;;
16037;SDS011;8123;50.906;6.172;2024-02-14T09:29:04;2.50;;;2.30;;
16037;SDS011;8123;50.906;6.172;2024-02-14T09:31:30;1.73;;;1.63;;
16037;SDS011;8123;50.906;6.172;2024-02-14T09:33:55;3.63;;;2.20;;
16037;SDS011;8123;50.906;6.172;2024-02-14T09:36:24;7.23;;;1.90;;
16037;SDS011;8123;50.906;6.172;2024-02-14T09:38:53;2.50;;;1.80;;
16037;SDS011;8123;50.906;6.172;2024-02-14T09:41:22;8.90;;;2.23;;
16037;SDS011;8123;50.906;6.172;2024-02-14T09:43:55;5.40;;;1.77;;
16037;SDS011;8123;50.906;6.172;2024-02-14T09:46:21;3.40;;;1.83;;
16037;SDS011;8123;50.906;6.172;2024-02-14T09:48:49;8.43;;;1.97;;
16037;SDS011;8123;50.906;6.172;2024-02-14T09:51:17;2.13;;;1.63;;
16037;SDS011;8123;50.906;6.172;2024-02-14T09:53:43;4.07;;;1.93;;
16037;SDS011;8123;50.906;6.172;2024-02-14T09:56:10;9.20;;;2.50;;
16037;SDS011;8123;50.906;6.172;2024-02-14T09:58:40;10.03;;;2.13;;
16037;SDS011;8123;50.906;6.172;2024-02-14T10:01:06;3.90;;;1.87;;
16037;SDS011;8123;50.906;6.172;2024-02-14T10:03:32;3.50;;;1.80;;
16037;SDS011;8123;50.906;6.172;2024-02-14T10:05:59;6.50;;;2.37;;
16037;SDS011;8123;50.906;6.172;2024-02-14T10:08:24;5.17;;;1.93;;
16037;SDS011;8123;50.906;6.172;2024-02-14T10:10:51;2.67;;;1.73;;
16037;SDS011;8123;50.906;6.172;2024-02-14T10:13:17;4.80;;;1.73;;
16037;SDS011;8123;50.906;6.172;2024-02-14T10:15:43;4.20;;;1.70;;
16037;SDS011;8123;50.906;6.172;2024-02-14T10:18:08;1.83;;;1.53;;
16037;SDS011;8123;50.906;6.172;2024-02-14T10:20:34;4.57;;;1.77;;
16037;SDS011;8123;50.906;6.172;2024-02-14T10:23:07;3.53;;;2.17;;
16037;SDS011;8123;50.906;6.172;2024-02-14T10:25:36;4.97;;;1.63;;
16037;SDS011;8123;50.906;6.172;2024-02-14T10:28:06;2.20;;;1.33;;
16037;SDS011;8123;50.906;6.172;2024-02-14T10:30:33;2.20;;;1.50;;
16037;SDS011;8123;50.906;6.172;2024-02-14T10:33:07;4.53;;;1.53;;
16037;SDS011;8123;50.906;6.172;2024-02-14T10:35:36;1.80;;;1.70;;
16037;SDS011;8123;50.906;6.172;2024-02-14T10:38:06;4.00;;;1.57;;
16037;SDS011;8123;50.906;6.172;2024-02-14T10:40:34;1.40;;;1.30;;
16037;SDS011;8123;50.906;6.172;2024-02-14T10:43:04;3.00;;;2.17;;
16037;SDS011;8123;50.906;6.172;2024-02-14T10:45:34;4.20;;;1.70;;
16037;SDS011;8123;50.906;6.172;2024-02-14T10:48:06;3.17;;;1.70;;
16037;SDS011;8123;50.906;6.172;2024-02-14T10:50:36;7.53;;;1.70;;
16037;SDS011;8123;50.906;6.172;2024-02-14T10:53:10;7.70;;;1.80;;
16037;SDS011;8123;50.906;6.172;2024-02-14T10:55:40;4.57;;;1.33;;
16037;SDS011;8123;50.906;6.172;2024-02-14T10:58:10;1.73;;;1.63;;
16037;SDS011;8123;50.906;6.172;2024-02-14T11:00:39;6.50;;;1.70;;
16037;SDS011;8123;50.906;6.172;2024-02-14T11:03:06;3.10;;;1.87;;
16037;SDS011;8123;50.906;6.172;2024-02-14T11:05:42;4.23;;;1.40;;
16037;SDS011;8123;50.906;6.172;2024-02-14T11:08:10;2.97;;;2.23;;
16037;SDS011;8123;50.906;6.172;2024-02-14T11:10:52;4.97;;;2.00;;
16037;SDS011;8123;50.906;6.172;2024-02-14T11:13:29;2.10;;;2.00;;
16037;SDS011;8123;50.906;6.172;2024-02-14T11:16:01;1.43;;;1.30;;
16037;SDS011;8123;50.906;6.172;2024-02-14T11:18:29;2.70;;;1.93;;
16037;SDS011;8123;50.906;6.172;2024-02-14T11:20:56;4.83;;;1.80;;
16037;SDS011;8123;50.906;6.172;2024-02-14T11:23:23;7.10;;;1.27;;
16037;SDS011;8123;50.906;6.172;2024-02-14T11:25:49;3.67;;;1.60;;
16037;SDS011;8123;50.906;6.172;2024-02-14T11:28:15;1.60;;;1.43;;
16037;SDS011;8123;50.906;6.172;2024-02-14T11:30:42;1.63;;;1.17;;
16037;SDS011;8123;50.906;6.172;2024-02-14T11:35:50;2.10;;;1.10;;
16037;SDS011;8123;50.906;6.172;2024-02-14T11:38:18;1.30;;;1.20;;
16037;SDS011;8123;50.906;6.172;2024-02-14T11:40:48;1.37;;;1.10;;
16037;SDS011;8123;50.906;6.172;2024-02-14T11:43:18;4.90;;;1.63;;
16037;SDS011;8123;50.906;6.172;2024-02-14T11:45:47;1.50;;;1.40;;
16037;SDS011;8123;50.906;6.172;2024-02-14T11:48:17;1.20;;;1.20;;
16037;SDS011;8123;50.906;6.172;2024-02-14T11:50:43;1.50;;;1.40;;
16037;SDS011;8123;50.906;6.172;2024-02-14T11:53:10;1.27;;;1.20;;
16037;SDS011;8123;50.906;6.172;2024-02-14T11:55:37;1.00;;;1.00;;
16037;SDS011;8123;50.906;6.172;2024-02-14T11:58:09;1.33;;;1.23;;
16037;SDS011;8123;50.906;6.172;2024-02-14T12:00:42;1.83;;;1.30;;
16037;SDS011;8123;50.906;6.172;2024-02-14T12:03:16;1.00;;;1.00;;
16037;SDS011;8123;50.906;6.172;2024-02-14T12:05:47;1.00;;;1.00;;
16037;SDS011;8123;50.906;6.172;2024-02-14T12:08:19;1.00;;;1.00;;
16037;SDS011;8123;50.906;6.172;2024-02-14T12:10:46;1.00;;;1.00;;
16037;SDS011;8123;50.906;6.172;2024-02-14T12:13:14;1.20;;;1.20;;
16037;SDS011;8123;50.906;6.172;2024-02-14T12:15:44;2.50;;;2.13;;
16037;SDS011;8123;50.906;6.172;2024-02-14T12:18:10;3.00;;;2.67;;
16037;SDS011;8123;50.906;6.172;2024-02-14T12:20:40;2.67;;;2.40;;
16037;SDS011;8123;50.906;6.172;2024-02-14T12:23:08;2.20;;;2.10;;
16037;SDS011;8123;50.906;6.172;2024-02-14T12:25:40;1.10;;;1.10;;
16037;SDS011;8123;50.906;6.172;2024-02-14T12:28:06;1.60;;;1.50;;
16037;SDS011;8123;50.906;6.172;2024-02-14T12:30:47;1.53;;;1.43;;
16037;SDS011;8123;50.906;6.172;2024-02-14T12:33:23;1.50;;;1.40;;
16037;SDS011;8123;50.906;6.172;2024-02-14T12:35:51;1.63;;;1.53;;
16037;SDS011;8123;50.906;6.172;2024-02-14T12:38:18;1.60;;;1.50;;
16037;SDS011;8123;50.906;6.172;2024-02-14T12:40:45;1.00;;;1.00;;
16037;SDS011;8123;50.906;6.172;2024-02-14T12:43:11;0.90;;;0.90;;
16037;SDS011;8123;50.906;6.172;2024-02-14T12:45:38;1.10;;;1.00;;
16037;SDS011;8123;50.906;6.172;2024-02-14T12:48:05;1.10;;;1.10;;
16037;SDS011;8123;50.906;6.172;2024-02-14T12:50:33;1.33;;;0.90;;
16037;SDS011;8123;50.906;6.172;2024-02-14T12:53:00;0.90;;;0.90;;
16037;SDS011;8123;50.906;6.172;2024-02-14T12:55:27;1.57;;;1.47;;
16037;SDS011;8123;50.906;6.172;2024-02-14T12:57:53;1.30;;;1.30;;
16037;SDS011;8123;50.906;6.172;2024-02-14T13:00:20;2.87;;;1.40;;
16037;SDS011;8123;50.906;6.172;2024-02-14T13:02:47;1.10;;;1.10;;
16037;SDS011;8123;50.906;6.172;2024-02-14T13:05:13;1.17;;;1.10;;
16037;SDS011;8123;50.906;6.172;2024-02-14T13:07:39;0.90;;;0.90;;
16037;SDS011;8123;50.906;6.172;2024-02-14T13:10:05;2.23;;;2.03;;
16037;SDS011;8123;50.906;6.172;2024-02-14T13:12:33;0.97;;;0.97;;
16037;SDS011;8123;50.906;6.172;2024-02-14T13:14:58;0.80;;;0.80;;
16037;SDS011;8123;50.906;6.172;2024-02-14T13:17:24;1.50;;;0.83;;
16037;SDS011;8123;50.906;6.172;2024-02-14T13:19:51;1.50;;;1.40;;
16037;SDS011;8123;50.906;6.172;2024-02-14T13:22:18;1.20;;;1.20;;
16037;SDS011;8123;50.906;6.172;2024-02-14T13:24:44;1.60;;;1.50;;
16037;SDS011;8123;50.906;6.172;2024-02-14T13:27:10;1.40;;;0.90;;
16037;SDS011;8123;50.906;6.172;2024-02-14T13:29:35;1.10;;;1.10;;
16037;SDS011;8123;50.906;6.172;2024-02-14T13:32:01;2.00;;;0.97;;
16037;SDS011;8123;50.906;6.172;2024-02-14T13:34:27;0.90;;;0.90;;
16037;SDS011;8123;50.906;6.172;2024-02-14T13:36:53;2.50;;;1.00;;
16037;SDS011;8123;50.906;6.172;2024-02-14T13:39:21;1.07;;;1.07;;
16037;SDS011;8123;50.906;6.172;2024-02-14T13:41:47;2.00;;;1.27;;
16037;SDS011;8123;50.906;6.172;2024-02-14T13:44:12;1.20;;;1.20;;
16037;SDS011;8123;50.906;6.172;2024-02-14T13:46:38;1.43;;;1.10;;
16037;SDS011;8123;50.906;6.172;2024-02-14T13:49:11;0.83;;;0.83;;
16037;SDS011;8123;50.906;6.172;2024-02-14T13:51:37;0.90;;;0.90;;
16037;SDS011;8123;50.906;6.172;2024-02-14T13:54:03;0.90;;;0.90;;
16037;SDS011;8123;50.906;6.172;2024-02-14T13:56:29;0.80;;;0.80;;
16037;SDS011;8123;50.906;6.172;2024-02-14T13:58:55;3.80;;;1.80;;
16037;SDS011;8123;50.906;6.172;2024-02-14T14:01:21;1.97;;;1.63;;
16037;SDS011;8123;50.906;6.172;2024-02-14T14:03:46;1.30;;;1.30;;
16037;SDS011;8123;50.906;6.172;2024-02-14T14:06:15;1.20;;;1.10;;
16037;SDS011;8123;50.906;6.172;2024-02-14T14:08:40;1.00;;;1.00;;
16037;SDS011;8123;50.906;6.172;2024-02-14T14:11:06;1.50;;;1.40;;
16037;SDS011;8123;50.906;6.172;2024-02-14T14:13:33;0.97;;;0.97;;
16037;SDS011;8123;50.906;6.172;2024-02-14T14:15:59;1.00;;;1.00;;
16037;SDS011;8123;50.906;6.172;2024-02-14T14:18:25;1.10;;;1.10;;
16037;SDS011;8123;50.906;6.172;2024-02-14T14:20:51;1.60;;;1.60;;
16037;SDS011;8123;50.906;6.172;2024-02-14T14:23:20;3.73;;;1.57;;
16037;SDS011;8123;50.906;6.172;2024-02-14T14:25:45;2.47;;;1.70;;
16037;SDS011;8123;50.906;6.172;2024-02-14T14:28:11;1.90;;;1.77;;
16037;SDS011;8123;50.906;6.172;2024-02-14T14:30:37;2.43;;;2.30;;
16037;SDS011;8123;50.906;6.172;2024-02-14T14:33:03;1.10;;;1.10;;
16037;SDS011;8123;50.906;6.172;2024-02-14T14:35:29;1.10;;;1.10;;
16037;SDS011;8123;50.906;6.172;2024-02-14T14:38:01;1.27;;;1.27;;
16037;SDS011;8123;50.906;6.172;2024-02-14T14:40:28;1.13;;;1.10;;
16037;SDS011;8123;50.906;6.172;2024-02-14T14:42:54;1.50;;;1.40;;
16037;SDS011;8123;50.906;6.172;2024-02-14T14:45:20;3.30;;;1.80;;
16037;SDS011;8123;50.906;6.172;2024-02-14T14:47:45;1.33;;;1.33;;
16037;SDS011;8123;50.906;6.172;2024-02-14T14:50:11;1.73;;;1.63;;
16037;SDS011;8123;50.906;6.172;2024-02-14T14:52:38;1.53;;;1.53;;
16037;SDS011;8123;50.906;6.172;2024-02-14T14:55:04;5.70;;;1.60;;
16037;SDS011;8123;50.906;6.172;2024-02-14T14:57:30;2.17;;;2.00;;
16037;SDS011;8123;50.906;6.172;2024-02-14T14:59:56;1.60;;;1.50;;